createdAt,value
2019-05-26T00:00:22.013Z,11.30
2019-05-26T00:02:51.502Z,11.40
2019-05-26T00:05:19.447Z,11.40
2019-05-26T00:07:49.535Z,11.40
2019-05-26T00:10:19.202Z,11.40
2019-05-26T00:12:48.877Z,11.50
2019-05-26T00:15:16.688Z,11.40
2019-05-26T00:17:44.623Z,11.50
2019-05-26T07:03:05.329Z,37.80
2019-05-26T07:05:33.272Z,38.20
2019-05-26T07:08:01.185Z,37.80
2019-05-26T07:10:28.995Z,37.70
2019-05-26T07:12:56.831Z,37.70
2019-05-26T07:15:24.675Z,38.20
2019-05-26T07:17:52.559Z,38.30
2019-05-26T07:20:21.809Z,38.10
2019-05-26T07:22:49.748Z,38.20
2019-05-26T07:25:17.631Z,37.90
2019-05-26T07:27:45.509Z,37.50
2019-05-26T07:30:13.249Z,36.80
2019-05-26T07:32:41.294Z,36.30
2019-05-26T07:35:09.427Z,36.30
2019-05-26T07:37:37.552Z,36.40
2019-05-26T07:40:05.640Z,36.30
2019-05-26T07:42:35.572Z,37.00
2019-05-26T07:45:03.551Z,37.70
2019-05-26T07:47:31.455Z,38.30
2019-05-26T07:49:59.226Z,38.30
2019-05-26T07:52:27.050Z,38.50
2019-05-26T07:54:55.530Z,38.60
2019-05-26T07:57:23.377Z,38.10
2019-05-26T07:59:51.471Z,37.70
2019-05-26T08:02:22.101Z,37.30
2019-05-26T08:04:50.398Z,37.50
2019-05-26T08:07:22.984Z,37.60
2019-05-26T08:09:52.719Z,37.60
2019-05-26T08:12:27.027Z,37.70
2019-05-26T08:14:50.291Z,37.80
2019-05-26T08:17:19.912Z,38.30
2019-05-26T08:19:50.930Z,38.20
2019-05-26T08:22:18.912Z,38.20
2019-05-26T08:24:46.798Z,38.30
2019-05-26T08:27:14.739Z,37.60
2019-05-26T08:29:43.860Z,37.10
2019-05-26T08:32:14.899Z,36.60
2019-05-26T08:34:42.598Z,36.60
2019-05-26T08:37:13.487Z,36.70
2019-05-26T08:39:41.540Z,36.70
2019-05-26T08:42:09.494Z,36.60
2019-05-26T08:44:40.699Z,36.60
2019-05-26T08:47:11.443Z,36.20
2019-05-26T08:49:40.983Z,35.80
2019-05-26T08:52:19.231Z,35.50
2019-05-26T08:54:50.347Z,35.70
2019-05-26T08:57:20.362Z,35.60
2019-05-26T08:59:51.403Z,34.60
2019-05-26T09:02:19.416Z,33.80
2019-05-26T09:04:48.933Z,33.40
2019-05-26T09:07:16.797Z,33.20
2019-05-26T09:09:44.808Z,32.60
2019-05-26T09:12:13.996Z,32.20
2019-05-26T09:14:42.498Z,32.10
2019-05-26T09:17:13.292Z,31.90
2019-05-26T09:19:41.443Z,31.40
2019-05-26T09:22:09.389Z,31.20
2019-05-26T09:24:43.503Z,31.50
2019-05-26T09:27:14.199Z,32.10
2019-05-26T09:29:42.219Z,33.10
2019-05-26T09:32:10.130Z,34.00
2019-05-26T09:34:38.109Z,34.50
2019-05-26T09:37:15.347Z,34.70
2019-05-26T09:39:43.329Z,35.50
2019-05-26T09:42:13.951Z,36.00
2019-05-26T09:44:42.246Z,36.30
2019-05-26T09:47:14.207Z,36.50
2019-05-26T09:49:42.819Z,36.00
2019-05-26T09:52:10.706Z,35.60
2019-05-26T09:54:38.621Z,34.80
2019-05-26T09:57:20.784Z,34.80
2019-05-26T09:59:48.698Z,35.50
2019-05-26T10:02:18.354Z,36.60
2019-05-26T10:04:48.990Z,37.60
2019-05-26T10:07:18.673Z,37.90
2019-05-26T10:09:52.079Z,37.90
2019-05-26T10:12:25.258Z,37.90
2019-05-26T10:14:57.166Z,37.80
2019-05-26T10:17:26.702Z,38.10
2019-05-26T10:20:02.545Z,38.00
2019-05-26T10:22:31.633Z,37.80
2019-05-26T10:24:59.632Z,37.30
2019-05-26T10:27:27.670Z,36.50
2019-05-26T10:29:57.345Z,35.70
2019-05-26T10:32:26.789Z,34.80
2019-05-26T10:34:56.401Z,34.30
2019-05-26T10:37:24.367Z,33.70
2019-05-26T10:39:53.473Z,32.60
2019-05-26T10:42:21.475Z,32.20
2019-05-26T10:44:50.111Z,32.00
2019-05-26T10:47:17.993Z,32.20
2019-05-26T10:49:46.055Z,32.80
2019-05-26T10:52:14.088Z,33.40
2019-05-26T10:54:42.027Z,33.70
2019-05-26T10:57:09.945Z,33.50
2019-05-26T10:59:38.342Z,32.90
2019-05-26T11:02:10.246Z,32.10
2019-05-26T11:04:38.169Z,31.50
2019-05-26T11:07:07.737Z,30.80
2019-05-26T11:09:37.969Z,29.90
2019-05-26T11:12:10.411Z,29.00
2019-05-26T11:14:38.455Z,28.50
2019-05-26T11:17:06.781Z,28.10
2019-05-26T11:19:38.216Z,27.80
2019-05-26T11:22:07.591Z,27.40
2019-05-26T11:24:35.724Z,27.10
2019-05-26T11:27:10.214Z,26.90
2019-05-26T11:29:38.063Z,26.50
2019-05-26T11:32:08.622Z,26.20
2019-05-26T11:34:36.559Z,25.90
2019-05-26T11:37:05.923Z,25.60
2019-05-26T11:39:34.142Z,25.40
2019-05-26T11:42:12.807Z,25.30
2019-05-26T11:44:31.588Z,25.00
2019-05-26T11:47:01.513Z,24.70
2019-05-26T11:49:29.377Z,24.50
2019-05-26T11:51:57.247Z,24.40
2019-05-26T11:54:27.669Z,24.50
2019-05-26T11:56:56.756Z,24.60
2019-05-26T11:59:30.012Z,24.60
2019-05-26T12:01:59.232Z,24.60
2019-05-26T12:04:28.910Z,24.60
2019-05-26T12:06:58.990Z,24.60
2019-05-26T12:09:28.615Z,24.50
2019-05-26T12:11:56.759Z,24.40
2019-05-26T12:14:34.656Z,24.40
2019-05-26T12:17:01.053Z,24.30
2019-05-26T12:19:30.198Z,24.20
2019-05-26T12:21:59.620Z,24.10
2019-05-26T12:24:27.729Z,24.00
2019-05-26T12:26:55.767Z,24.10
2019-05-26T12:29:23.771Z,24.20
2019-05-26T12:31:51.901Z,24.30
2019-05-26T12:34:21.284Z,24.30
2019-05-26T12:36:49.124Z,24.50
2019-05-26T12:39:17.084Z,24.60
2019-05-26T12:41:44.940Z,24.80
2019-05-26T12:44:12.827Z,25.00
2019-05-26T12:46:40.817Z,25.00
2019-05-26T12:49:09.105Z,25.00
2019-05-26T12:51:37.199Z,25.00
2019-05-26T12:54:06.864Z,24.90
2019-05-26T12:56:34.753Z,24.80
2019-05-26T12:59:02.563Z,24.80
2019-05-26T13:01:30.691Z,24.70
2019-05-26T13:03:58.648Z,24.50
2019-05-26T13:06:26.730Z,24.40
2019-05-26T13:08:54.852Z,24.40
2019-05-26T13:11:23.044Z,24.50
2019-05-26T13:13:52.419Z,24.50
2019-05-26T13:16:20.564Z,24.40
2019-05-26T13:18:51.924Z,24.50
2019-05-26T13:21:20.368Z,24.40
2019-05-26T13:23:48.447Z,24.30
2019-05-26T13:26:16.446Z,24.30
2019-05-26T13:28:47.085Z,24.30
2019-05-26T13:31:15.045Z,24.20
2019-05-26T13:33:43.004Z,24.20
2019-05-26T13:36:10.815Z,24.20
2019-05-26T13:38:38.715Z,24.20
2019-05-26T13:41:06.546Z,24.20
2019-05-26T13:43:34.384Z,24.20
2019-05-26T13:46:02.234Z,24.30
2019-05-26T13:48:30.084Z,24.30
2019-05-26T13:50:57.925Z,24.30
2019-05-26T13:53:26.229Z,24.20
2019-05-26T13:55:54.087Z,24.20
2019-05-26T13:58:21.941Z,24.20
2019-05-26T14:00:49.730Z,24.00
2019-05-26T14:03:17.580Z,23.90
2019-05-26T14:05:45.441Z,23.70
2019-05-26T14:08:13.337Z,23.60
2019-05-26T14:10:41.137Z,23.40
2019-05-26T14:13:10.718Z,23.30
2019-05-26T14:15:39.455Z,23.20
2019-05-26T14:18:07.484Z,23.20
2019-05-26T14:20:36.988Z,23.10
2019-05-26T14:23:05.447Z,23.00
2019-05-26T14:25:33.317Z,23.00
2019-05-26T14:28:01.157Z,22.90
2019-05-26T14:30:29.452Z,22.90
2019-05-26T14:32:58.599Z,22.90
2019-05-26T14:35:26.588Z,22.80
2019-05-26T14:37:55.999Z,22.80
2019-05-26T14:40:23.858Z,22.90
2019-05-26T14:42:51.738Z,22.80
2019-05-26T14:45:19.647Z,22.80
2019-05-26T14:47:48.865Z,22.80
2019-05-26T14:50:18.459Z,22.90
2019-05-26T14:52:46.410Z,22.90
2019-05-26T14:55:15.308Z,22.90
2019-05-26T14:57:43.159Z,22.90
2019-05-26T15:00:11.029Z,22.90
2019-05-26T15:02:41.097Z,22.80
2019-05-26T15:05:09.108Z,22.80
2019-05-26T15:07:37.037Z,22.90
2019-05-26T15:10:07.621Z,22.90
2019-05-26T15:12:35.456Z,22.90
2019-05-26T15:15:04.708Z,22.90
2019-05-26T15:17:36.227Z,22.90
2019-05-26T15:20:05.099Z,22.90
2019-05-26T15:22:33.448Z,22.90
2019-05-26T15:25:01.714Z,22.80
2019-05-26T15:27:30.650Z,22.70
2019-05-26T15:29:58.610Z,22.60
2019-05-26T15:32:29.399Z,22.60
2019-05-26T15:34:57.228Z,22.60
2019-05-26T15:37:26.468Z,22.70
2019-05-26T15:39:54.298Z,22.70
2019-05-26T15:42:22.187Z,22.80
2019-05-26T15:44:50.007Z,22.90
2019-05-26T15:47:17.818Z,23.00
2019-05-26T15:49:45.657Z,23.10
2019-05-26T15:52:13.497Z,23.00
2019-05-26T15:54:41.318Z,23.00
2019-05-26T15:57:09.161Z,23.10
2019-05-26T15:59:36.998Z,23.00
2019-05-26T16:02:04.859Z,23.00
2019-05-26T16:04:32.647Z,23.10
2019-05-26T16:07:00.538Z,23.10
2019-05-26T16:09:28.348Z,23.20
2019-05-26T16:11:56.209Z,23.20
2019-05-26T16:14:24.105Z,23.30
2019-05-26T16:16:52.049Z,23.30
2019-05-26T16:19:19.833Z,23.40
2019-05-26T16:21:47.748Z,23.40
2019-05-26T16:24:17.167Z,23.40
2019-05-26T16:26:45.099Z,23.30
2019-05-26T16:29:12.972Z,23.30
2019-05-26T16:31:42.458Z,23.20
2019-05-26T16:34:10.327Z,23.10
2019-05-26T16:36:38.190Z,23.00
2019-05-26T16:39:06.497Z,22.90
2019-05-26T16:41:34.513Z,22.80
2019-05-26T16:44:02.511Z,22.80
2019-05-26T16:46:30.555Z,22.80
2019-05-26T16:48:58.697Z,22.80
2019-05-26T16:51:26.735Z,22.80
2019-05-26T16:53:54.961Z,22.80
2019-05-26T16:56:22.878Z,22.80
2019-05-26T16:58:50.830Z,22.70
2019-05-26T17:01:18.825Z,22.70
2019-05-26T17:03:46.755Z,22.60
2019-05-26T17:06:15.154Z,22.60
2019-05-26T17:08:43.343Z,22.60
2019-05-26T17:11:11.404Z,22.60
2019-05-26T17:13:39.458Z,22.50
2019-05-26T17:16:09.234Z,22.50
2019-05-26T17:18:38.189Z,22.50
2019-05-26T17:21:06.385Z,22.40
2019-05-26T17:23:34.429Z,22.40
2019-05-26T17:26:02.387Z,22.30
2019-05-26T17:28:30.273Z,22.20
2019-05-26T17:30:58.844Z,22.10
2019-05-26T17:33:28.267Z,22.00
2019-05-26T17:35:56.227Z,21.90
2019-05-26T17:38:24.627Z,21.80
2019-05-26T17:40:53.066Z,21.80
2019-05-26T17:43:21.026Z,21.70
2019-05-26T17:45:49.434Z,21.60
2019-05-26T17:48:17.546Z,21.60
2019-05-26T17:50:45.587Z,21.40
2019-05-26T17:53:13.778Z,21.40
2019-05-26T17:55:42.158Z,21.30
2019-05-26T17:58:10.266Z,21.20
2019-05-26T18:00:38.227Z,21.10
2019-05-26T18:03:06.309Z,21.10
2019-05-26T18:05:34.225Z,21.10
2019-05-26T18:08:03.693Z,21.10
2019-05-26T18:10:32.654Z,21.10
2019-05-26T18:13:00.656Z,21.00
2019-05-26T18:15:28.738Z,21.00
2019-05-26T18:17:56.682Z,21.00
2019-05-26T18:20:24.641Z,20.90
2019-05-26T18:22:53.080Z,20.80
2019-05-26T18:25:21.227Z,20.80
2019-05-26T18:27:49.328Z,20.80
2019-05-26T18:30:17.685Z,20.70
2019-05-26T18:32:45.865Z,20.70
2019-05-26T18:35:14.064Z,20.60
2019-05-26T18:37:41.971Z,20.60
2019-05-26T18:40:10.107Z,20.40
2019-05-26T18:42:38.146Z,20.40
2019-05-26T18:45:06.925Z,20.30
2019-05-26T18:47:34.968Z,20.20
2019-05-26T18:50:03.272Z,20.10
2019-05-26T18:52:31.353Z,20.10
2019-05-26T18:54:59.924Z,20.00
2019-05-26T18:57:27.931Z,20.00
2019-05-26T18:59:55.973Z,19.90
2019-05-26T19:02:24.018Z,19.80
2019-05-26T19:04:51.856Z,19.70
2019-05-26T19:07:19.769Z,19.70
2019-05-26T19:09:47.814Z,19.60
2019-05-26T19:12:16.045Z,19.50
2019-05-26T19:14:44.250Z,19.50
2019-05-26T19:17:12.731Z,19.50
2019-05-26T19:19:40.592Z,19.50
2019-05-26T19:22:08.623Z,19.50
2019-05-26T19:24:36.644Z,19.50
2019-05-26T19:27:04.550Z,19.50
2019-05-26T19:29:32.770Z,19.50
2019-05-26T19:32:00.877Z,19.50
2019-05-26T19:34:28.862Z,19.40
2019-05-26T19:36:56.806Z,19.40
2019-05-26T19:39:24.682Z,19.40
2019-05-26T19:41:52.521Z,19.40
2019-05-26T19:44:20.370Z,19.40
2019-05-26T19:46:52.497Z,19.40
2019-05-26T19:49:17.772Z,19.30
2019-05-26T19:51:45.914Z,19.30
2019-05-26T19:54:13.962Z,19.30
2019-05-26T19:56:41.927Z,19.30
2019-05-26T19:59:09.791Z,19.20
2019-05-26T20:01:37.675Z,19.20
2019-05-26T20:04:05.499Z,19.10
2019-05-26T20:06:33.568Z,19.10
2019-05-26T20:09:01.654Z,19.00
2019-05-26T20:11:29.652Z,19.00
2019-05-26T20:13:58.525Z,19.00
2019-05-26T20:16:29.920Z,18.90
2019-05-26T20:18:56.072Z,19.00
2019-05-26T20:21:23.996Z,18.90
2019-05-26T20:23:51.920Z,18.90
2019-05-26T20:26:19.766Z,18.90
2019-05-26T20:28:47.688Z,18.90
2019-05-26T20:31:15.650Z,18.90
2019-05-26T20:33:43.554Z,18.90
2019-05-26T20:36:11.442Z,18.90
2019-05-26T20:38:39.540Z,18.90
2019-05-26T20:41:07.584Z,18.90
2019-05-26T20:43:36.934Z,18.90
2019-05-26T20:46:04.783Z,18.90
2019-05-26T20:48:32.716Z,18.90
2019-05-26T20:51:00.591Z,19.00
2019-05-26T20:53:28.607Z,19.00
2019-05-26T20:55:56.536Z,19.00
2019-05-26T20:58:24.484Z,19.00
2019-05-26T21:00:53.392Z,18.90
2019-05-26T21:03:21.317Z,19.00
2019-05-26T21:05:49.238Z,19.00
2019-05-26T21:08:17.135Z,18.90
2019-05-26T21:10:45.016Z,18.90
2019-05-26T21:13:12.893Z,18.90
2019-05-26T21:15:48.030Z,18.90
2019-05-26T21:18:17.560Z,18.90
2019-05-26T21:20:45.419Z,18.90
2019-05-26T21:23:13.761Z,18.90
2019-05-26T21:25:42.923Z,18.90
2019-05-26T21:28:11.161Z,18.80
2019-05-26T21:30:39.231Z,18.80
2019-05-26T21:33:07.310Z,18.80
2019-05-26T21:35:38.337Z,18.80
2019-05-26T21:38:06.501Z,18.70
2019-05-26T21:40:34.351Z,18.70
2019-05-26T21:43:02.718Z,18.60
2019-05-26T21:45:33.368Z,18.50
2019-05-26T21:48:01.233Z,18.50
2019-05-26T21:50:29.173Z,18.40
2019-05-26T21:52:58.056Z,18.30
2019-05-26T21:55:27.580Z,18.20
2019-05-26T21:57:55.596Z,18.20
2019-05-26T22:00:28.007Z,18.10
2019-05-26T22:02:56.490Z,18.00
2019-05-26T22:05:24.600Z,17.90
2019-05-26T22:07:52.648Z,17.90
2019-05-26T22:10:20.722Z,17.80
2019-05-26T22:12:50.003Z,17.70
2019-05-26T22:15:18.051Z,17.70
2019-05-26T22:17:46.282Z,17.60
2019-05-26T22:20:14.960Z,17.50
2019-05-26T22:22:43.761Z,17.50
2019-05-26T22:25:11.721Z,17.40
2019-05-26T22:27:39.761Z,17.30
2019-05-26T22:30:08.017Z,17.30
2019-05-26T22:32:36.089Z,17.20
2019-05-26T22:35:05.963Z,17.10
2019-05-26T22:37:34.969Z,17.00
2019-05-26T22:40:16.696Z,17.00
2019-05-26T22:42:45.644Z,16.90
2019-05-26T22:45:20.439Z,16.90
2019-05-26T22:47:48.131Z,16.90
2019-05-26T22:50:17.265Z,16.80
2019-05-26T22:52:50.186Z,16.80
2019-05-26T22:55:20.108Z,16.70
2019-05-26T22:57:49.029Z,16.70
2019-05-26T23:00:19.511Z,16.70
2019-05-26T23:02:49.092Z,16.70
2019-05-26T23:05:19.133Z,16.60
2019-05-26T23:07:51.871Z,16.60
2019-05-26T23:10:27.207Z,16.60
2019-05-26T23:12:59.258Z,16.60
2019-05-26T23:15:27.099Z,16.50
2019-05-26T23:17:58.124Z,16.50
2019-05-26T23:20:26.001Z,16.50
2019-05-26T23:22:58.147Z,16.50
2019-05-26T23:25:26.145Z,16.40
2019-05-26T23:27:54.108Z,16.40
2019-05-26T23:30:21.981Z,16.40
2019-05-26T23:32:49.835Z,16.30
2019-05-26T23:35:17.764Z,16.30
2019-05-26T23:37:49.092Z,16.30
2019-05-26T23:40:18.010Z,16.30
2019-05-26T23:42:49.045Z,16.20
2019-05-26T23:45:21.951Z,16.20
2019-05-26T23:47:50.414Z,16.20
2019-05-26T23:50:27.345Z,16.10
2019-05-26T23:52:52.426Z,16.10
2019-05-26T23:55:21.529Z,16.10
2019-05-26T23:57:51.791Z,16.00
